METAR AND TAF INFORMATION
METAR FOR UAUU
ADDS - METARS form results

(1212 UTC 17 June 2019)
Data provider http://aviationweather.gov/metar/data/
 
METAR text: UAUU 171200Z 32006MPS CAVOK 18/02 Q1005 NOSIG RMK QFE738/0985
Conditions at: UAUU (KOSTANAY , KZ) observed 1200 UTC 17 June 2019
Temperature: 18.0°C (64°F)
Dewpoint: 2.0°C (36°F) [RH = 34%]
Pressure (altimeter): 29.68 inches Hg (1005.0 mb)
Winds: from the NW (320 degrees) at 14 MPH (12 knots; 6.2 m/s)
Visibility: 6 or more miles (10+ km)
Ceiling: ceiling and visibility are OK
Clouds: unknown
Weather: no significant weather observed at this time

METAR text: UAUU 171130Z 34004MPS 310V010 CAVOK 18/05 Q1005 NOSIG RMK QFE739/0985
Conditions at: UAUU (KOSTANAY , KZ) observed 1130 UTC 17 June 2019
Temperature: 18.0°C (64°F)
Dewpoint: 5.0°C (41°F) [RH = 42%]
Pressure (altimeter): 29.68 inches Hg (1005.0 mb)
Winds: from the NNW (340 degrees) at 9 MPH (8 knots; 4.1 m/s)
Visibility: 6 or more miles (10+ km)
Ceiling: ceiling and visibility are OK
Clouds: unknown
Weather: no significant weather observed at this time

Forecast for: UAUU (KOSTANAY , KZ)
Text: TAF UAUU 171100Z 1712/1721 35003G08MPS 9999 BKN020CB
Forecast period: 1200 to 1500 UTC 17 June 2019
Forecast type: FROM: standard forecast or significant change
Winds: from the N (350 degrees) at 7 MPH (6 knots; 3.1 m/s)
gusting to 18 MPH (16 knots; 8.2 m/s)
Visibility: 6 or more miles 10+ km)
Ceiling: 2000 feet AGL
Clouds: broken clouds at 2000 feet AGL
Weather: no significant weather forecast for this period
Text: TEMPO 1712/1715 34005G10MPS 5000 -SHRA BKN015CB
Forecast period: 1200 to 1500 UTC 17 June 2019
Forecast type: TEMPORARY: The following changes expected for less than half the time period
Winds: from the NNW (340 degrees) at 12 MPH (10 knots; 5.1 m/s)
gusting to 22 MPH (19 knots; 9.8 m/s)
Visibility: 3 miles (5 km)
Ceiling: 1500 feet AGL
Clouds: broken clouds at 1500 feet AGL
Weather: -SHRA  (light rain showers)
Text: BECMG 1715/1716 34003MPS
Forecast period: 1500 to 2100 UTC 17 June 2019
Forecast type: BECOMING: Conditions expected to become as follows by 1600 UTC 17 June 2019
Winds: from the NNW (340 degrees) at 7 MPH (6 knots; 3.1 m/s)
Visibility: 6 or more miles 10+ km)
Ceiling: 2000 feet AGL
Clouds: broken clouds at 2000 feet AGL
Weather: no significant weather forecast for this period

 AIRPORT MAP

 RUNWAY INFORMATION

 AIRPORT FREQUENCIES
Type TWR Name TWR Frequency 129.3 MHZ

 AIRPORT NEAR NAVIGATION AIDS
Type NDB Name Kostanay Frequency 512 KHZ
Type NDB Name Kostanay Frequency 512 KHZ



2018 Air Astana Virtual Airline